Time;durP1;ratioP1;P1;durP2;ratioP2;P2;SDS_P1;SDS_P2;PMS_P1;PMS_P2;Temp;Humidity;BMP_temperature;BMP_pressure;BME280_temperature;BME280_humidity;BME280_pressure;Samples;Min_cycle;Max_cycle;Signal;HPM_P1;HPM_P2
2022/10/27 00:00:47;;;;;;;8.13;7.53;;;;;;;7.78;100.00;97950.06;4965158;28;20200;-63
2022/10/27 00:03:17;;;;;;;9.10;7.77;;;;;;;7.85;100.00;97950.31;4963729;28;20210;-65
2022/10/27 00:05:46;;;;;;;11.07;9.70;;;;;;;7.80;100.00;97948.94;4963418;28;20235;-65
2022/10/27 00:08:15;;;;;;;11.23;10.23;;;;;;;7.73;100.00;97934.66;4962862;28;20229;-65
2022/10/27 00:10:44;;;;;;;11.37;10.13;;;;;;;7.79;100.00;97947.28;4964790;28;20233;-66
2022/10/27 00:13:13;;;;;;;14.37;10.47;;;;;;;7.81;100.00;97947.97;4963257;28;20208;-64
2022/10/27 00:15:41;;;;;;;10.87;9.33;;;;;;;7.84;100.00;97948.66;4964817;28;20946;-64
2022/10/27 00:18:12;;;;;;;13.67;10.20;;;;;;;7.88;100.00;97958.75;4965192;28;20716;-64
2022/10/27 00:20:40;;;;;;;11.57;9.70;;;;;;;7.92;100.00;97954.03;4963453;28;20393;-64
2022/10/27 00:23:08;;;;;;;13.53;10.13;;;;;;;7.90;100.00;97954.16;4965038;28;20213;-65
2022/10/27 00:25:36;;;;;;;16.00;10.37;;;;;;;7.92;100.00;97951.38;4962184;28;20248;-64
2022/10/27 00:28:04;;;;;;;15.20;10.07;;;;;;;7.95;100.00;97959.00;4964858;28;20220;-64
2022/10/27 00:30:33;;;;;;;14.83;9.43;;;;;;;7.89;100.00;97957.78;4962266;28;20236;-64
2022/10/27 00:33:01;;;;;;;18.27;8.23;;;;;;;7.89;100.00;97965.69;4964142;28;20209;-65
2022/10/27 00:35:31;;;;;;;8.00;7.40;;;;;;;7.83;100.00;97976.84;4963174;28;20213;-67
2022/10/27 00:37:59;;;;;;;9.33;8.53;;;;;;;7.88;100.00;97979.03;4963995;28;20235;-64
2022/10/27 00:40:27;;;;;;;10.03;9.03;;;;;;;7.85;100.00;97974.88;4963700;28;20216;-61
2022/10/27 00:42:55;;;;;;;8.77;8.03;;;;;;;7.86;100.00;97971.25;4962716;28;20213;-64
2022/10/27 00:45:23;;;;;;;10.53;9.37;;;;;;;7.80;100.00;97979.78;4963034;28;20201;-62
2022/10/27 00:47:51;;;;;;;9.50;8.10;;;;;;;7.77;100.00;97975.63;4963876;28;20236;-63
2022/10/27 00:50:22;;;;;;;12.33;10.63;;;;;;;7.83;100.00;97979.47;4961388;28;21317;-64
2022/10/27 00:52:52;;;;;;;8.30;7.70;;;;;;;7.68;100.00;97984.41;4963649;28;20209;-62
2022/10/27 00:55:22;;;;;;;8.60;7.90;;;;;;;7.58;100.00;97978.34;4963094;28;20201;-63
2022/10/27 00:57:53;;;;;;;8.80;8.10;;;;;;;7.54;100.00;97980.44;4964821;28;20217;-64
2022/10/27 01:00:22;;;;;;;7.40;6.90;;;;;;;7.46;100.00;97975.91;4964354;28;20209;-64
2022/10/27 01:02:50;;;;;;;8.60;7.90;;;;;;;7.49;100.00;97980.88;4962813;28;20216;-64
2022/10/27 01:05:21;;;;;;;9.27;7.40;;;;;;;7.41;100.00;97983.41;4963277;28;20654;-64
2022/10/27 01:07:51;;;;;;;8.17;7.57;;;;;;;7.45;100.00;97986.56;4964651;28;20229;-62
2022/10/27 01:10:20;;;;;;;9.33;8.37;;;;;;;7.40;100.00;97987.03;4963569;28;20228;-67
2022/10/27 01:12:48;;;;;;;9.23;8.50;;;;;;;7.38;100.00;97983.69;4963119;28;20216;-64
2022/10/27 01:15:21;;;;;;;7.53;7.03;;;;;;;7.25;100.00;97984.00;4962786;28;20336;-68
2022/10/27 01:17:53;;;;;;;7.30;6.77;;;;;;;7.15;100.00;97977.91;4963533;28;20233;-64
2022/10/27 01:20:47;;;;;;;8.57;7.87;;;;;;;7.25;100.00;97976.09;4963029;28;20212;-64
2022/10/27 01:23:23;;;;;;;8.10;7.30;;;;;;;7.21;100.00;97983.47;4962624;28;20205;-63
2022/10/27 01:26:47;;;;;;;7.27;6.77;;;;;;;7.16;100.00;97969.03;4996020;28;20228;-64
2022/10/27 01:29:54;;;;;;;9.83;8.40;;;;;;;7.18;100.00;97978.47;4916916;28;20207;-62
2022/10/27 01:32:32;;;;;;;8.70;7.90;;;;;;;7.27;100.00;97975.94;4927463;28;20710;-64
2022/10/27 01:35:03;;;;;;;9.13;8.27;;;;;;;7.21;100.00;97972.09;4918241;28;20225;-63
2022/10/27 01:37:37;;;;;;;9.27;8.53;;;;;;;7.15;100.00;97972.66;4915799;28;20960;-65
2022/10/27 01:40:10;;;;;;;8.73;7.67;;;;;;;7.08;100.00;97969.78;4917766;28;20213;-65
2022/10/27 01:42:45;;;;;;;9.30;7.87;;;;;;;6.97;100.00;97978.66;4919936;28;20200;-64
2022/10/27 01:45:15;;;;;;;9.40;8.50;;;;;;;7.05;100.00;97970.06;4915887;28;20366;-65
2022/10/27 01:47:49;;;;;;;9.20;8.17;;;;;;;7.08;100.00;97981.13;4919678;28;20252;-65
2022/10/27 01:50:18;;;;;;;8.73;8.00;;;;;;;6.97;100.00;97978.66;4914950;28;20283;-64
2022/10/27 01:52:48;;;;;;;7.20;6.70;;;;;;;6.93;100.00;97972.81;4914808;28;20442;-64
2022/10/27 01:55:20;;;;;;;7.37;6.77;;;;;;;6.87;100.00;97981.31;4916666;28;20222;-65
2022/10/27 01:58:30;;;;;;;8.13;7.43;;;;;;;6.87;100.00;97986.56;4916864;28;20226;-64
2022/10/27 02:01:08;;;;;;;6.60;5.93;;;;;;;6.93;100.00;98001.81;4945062;28;20201;-64
2022/10/27 02:03:43;;;;;;;7.03;6.53;;;;;;;7.04;100.00;97994.75;4962207;28;20212;-65
2022/10/27 02:06:18;;;;;;;7.73;7.13;;;;;;;7.03;100.00;97998.34;4961343;28;20645;-63
2022/10/27 02:08:50;;;;;;;7.23;6.57;;;;;;;6.98;100.00;97995.28;4961334;28;20690;-65
2022/10/27 02:11:19;;;;;;;8.47;7.90;;;;;;;7.01;100.00;97995.00;4962747;28;20229;-65
2022/10/27 02:13:48;;;;;;;9.13;8.43;;;;;;;7.07;100.00;97997.09;4962283;28;20209;-65
2022/10/27 02:16:21;;;;;;;14.70;9.03;;;;;;;7.14;100.00;97999.97;4960387;28;20209;-64
2022/10/27 02:18:53;;;;;;;10.33;9.33;;;;;;;7.20;100.00;98005.53;4962310;28;20566;-63
2022/10/27 02:21:23;;;;;;;11.97;9.60;;;;;;;7.25;100.00;98007.75;4962388;28;20200;-63
2022/10/27 02:23:52;;;;;;;10.30;9.30;;;;;;;7.33;100.00;98007.00;4959161;28;20216;-63
2022/10/27 02:26:25;;;;;;;11.07;9.93;;;;;;;7.39;100.00;98003.81;4961152;28;20785;-65
2022/10/27 02:28:56;;;;;;;11.70;9.70;;;;;;;7.45;100.00;98008.50;4962028;28;22325;-62
2022/10/27 02:31:27;;;;;;;18.80;10.40;;;;;;;7.51;100.00;98002.66;4961511;28;20220;-63
2022/10/27 02:33:57;;;;;;;14.67;10.80;;;;;;;7.59;100.00;98007.22;4963685;28;20201;-60
2022/10/27 02:36:25;;;;;;;17.50;11.87;;;;;;;7.56;100.00;98001.41;4964168;28;20209;-62
2022/10/27 02:38:54;;;;;;;23.10;13.07;;;;;;;7.55;100.00;97997.09;4958047;28;20205;-61
2022/10/27 02:41:22;;;;;;;20.47;11.70;;;;;;;7.60;100.00;97998.34;4959059;28;20209;-62
2022/10/27 02:43:50;;;;;;;12.27;10.37;;;;;;;7.63;100.00;98002.47;4962104;28;20224;-64
2022/10/27 02:46:18;;;;;;;26.37;12.87;;;;;;;7.64;100.00;98002.34;4959969;28;20216;-64
2022/10/27 02:48:46;;;;;;;21.67;11.47;;;;;;;7.63;100.00;97997.19;4960263;28;20323;-64
2022/10/27 02:51:16;;;;;;;28.20;14.77;;;;;;;7.66;100.00;97997.75;4966276;28;20275;-64
2022/10/27 02:53:44;;;;;;;13.63;10.47;;;;;;;7.68;100.00;98000.22;4964232;28;20209;-64
2022/10/27 02:56:12;;;;;;;15.90;12.47;;;;;;;7.72;100.00;98000.78;4988204;28;20230;-65
2022/10/27 02:58:40;;;;;;;13.53;10.77;;;;;;;7.73;100.00;98002.44;4969026;28;21100;-64
2022/10/27 03:01:09;;;;;;;22.27;11.90;;;;;;;7.75;100.00;98001.28;4964076;28;20258;-63
2022/10/27 03:03:37;;;;;;;20.17;10.40;;;;;;;7.74;100.00;98006.72;4964543;28;20319;-64
2022/10/27 03:06:05;;;;;;;11.03;9.83;;;;;;;7.70;100.00;98008.00;4963994;28;20205;-63
2022/10/27 03:08:35;;;;;;;9.83;8.93;;;;;;;7.61;100.00;98004.44;4963225;28;20233;-63
2022/10/27 03:11:03;;;;;;;9.53;8.73;;;;;;;7.64;100.00;97996.22;4963232;28;20229;-65
2022/10/27 03:13:31;;;;;;;10.40;9.50;;;;;;;7.62;100.00;98000.81;4963732;28;20330;-64
2022/10/27 03:15:59;;;;;;;9.10;8.30;;;;;;;7.65;100.00;98001.38;4964639;28;20208;-63
2022/10/27 03:18:27;;;;;;;8.90;8.10;;;;;;;7.65;100.00;97993.44;4959884;28;20240;-64
2022/10/27 03:20:55;;;;;;;9.50;8.60;;;;;;;7.71;100.00;97999.13;4963810;28;20511;-65
2022/10/27 03:23:24;;;;;;;12.03;10.27;;;;;;;7.73;100.00;98008.53;4964156;28;20208;-65
2022/10/27 03:25:53;;;;;;;15.43;9.87;;;;;;;7.71;100.00;98004.41;4965194;28;20212;-65
2022/10/27 03:28:29;;;;;;;10.10;9.20;;;;;;;7.76;100.00;98012.69;4960870;28;20227;-65
2022/10/27 03:30:57;;;;;;;9.83;8.83;;;;;;;7.85;100.00;98021.56;4961980;28;20843;-65
2022/10/27 03:33:25;;;;;;;11.47;9.53;;;;;;;7.86;100.00;98018.75;4959915;28;20209;-65
2022/10/27 03:35:53;;;;;;;10.83;9.90;;;;;;;7.90;100.00;98019.31;4964180;28;20209;-63
2022/10/27 03:38:21;;;;;;;9.37;8.23;;;;;;;7.90;100.00;98019.31;4964087;28;20217;-61
2022/10/27 03:40:50;;;;;;;10.53;9.53;;;;;;;7.92;100.00;98012.88;4996562;28;20208;-64
2022/10/27 03:43:19;;;;;;;9.60;8.70;;;;;;;7.85;100.00;98014.44;4963376;28;20201;-62
2022/10/27 03:45:48;;;;;;;9.87;8.90;;;;;;;7.83;100.00;98013.78;4963303;28;20208;-61
2022/10/27 03:48:16;;;;;;;9.07;8.27;;;;;;;7.80;100.00;98014.06;4964793;28;20984;-63
2022/10/27 03:50:46;;;;;;;11.97;8.73;;;;;;;7.70;100.00;98011.47;4962847;28;20201;-64
2022/10/27 03:53:15;;;;;;;8.73;7.93;;;;;;;7.80;100.00;98020.19;4962684;28;20471;-61
2022/10/27 03:55:43;;;;;;;8.33;7.63;;;;;;;7.84;100.00;98018.06;4961564;28;20216;-63
2022/10/27 03:58:12;;;;;;;7.70;7.13;;;;;;;7.79;100.00;98023.81;4962387;28;20389;-64
2022/10/27 04:00:45;;;;;;;8.40;7.70;;;;;;;7.83;100.00;98016.41;4962777;28;20197;-56
2022/10/27 04:03:14;;;;;;;9.00;8.20;;;;;;;7.82;100.00;98018.22;4963597;28;20200;-57
2022/10/27 04:05:42;;;;;;;9.03;8.20;;;;;;;7.89;100.00;98017.63;4964955;28;20615;-56
2022/10/27 04:08:11;;;;;;;13.33;9.17;;;;;;;7.87;100.00;98017.78;4964135;28;21005;-56
2022/10/27 04:10:39;;;;;;;15.23;10.17;;;;;;;7.84;100.00;98015.44;4963512;28;20213;-61
2022/10/27 04:13:07;;;;;;;9.83;8.37;;;;;;;7.94;100.00;98024.13;4962124;28;20229;-64
2022/10/27 04:15:35;;;;;;;8.43;7.63;;;;;;;7.93;100.00;98019.81;4961835;28;20216;-64
2022/10/27 04:18:05;;;;;;;8.17;7.37;;;;;;;7.88;100.00;98019.44;4963241;28;22324;-63
2022/10/27 04:20:33;;;;;;;8.93;8.13;;;;;;;7.67;100.00;98012.59;4962680;28;22056;-66
2022/10/27 04:23:02;;;;;;;8.10;7.40;;;;;;;7.68;100.00;98022.16;4962737;28;20201;-65
2022/10/27 04:25:30;;;;;;;10.83;7.50;;;;;;;7.72;100.00;98021.88;4962950;28;20738;-65
2022/10/27 04:28:01;;;;;;;9.87;7.17;;;;;;;7.65;100.00;98017.19;4963523;28;20229;-67
2022/10/27 04:30:30;;;;;;;8.67;7.87;;;;;;;7.66;100.00;98021.50;4961766;28;21545;-66
2022/10/27 04:32:58;;;;;;;9.63;7.77;;;;;;;7.68;100.00;98021.31;4963708;28;20229;-65
2022/10/27 04:35:28;;;;;;;7.50;6.83;;;;;;;7.72;100.00;98024.53;4962351;28;20328;-65
2022/10/27 04:37:56;;;;;;;11.97;7.50;;;;;;;7.76;100.00;98024.06;4994652;28;20726;-65
2022/10/27 04:40:24;;;;;;;7.93;7.20;;;;;;;7.68;100.00;98021.31;4962151;28;21518;-62
2022/10/27 04:42:53;;;;;;;8.00;7.13;;;;;;;7.61;100.00;98031.66;4955163;28;20549;-64
2022/10/27 04:45:21;;;;;;;7.33;6.83;;;;;;;7.61;100.00;98023.72;4961228;28;20703;-65
2022/10/27 04:47:49;;;;;;;9.07;8.20;;;;;;;7.58;100.00;98031.94;4960751;28;20236;-64
2022/10/27 04:50:18;;;;;;;8.53;7.77;;;;;;;7.58;100.00;98028.44;4961730;28;20205;-64
2022/10/27 04:52:56;;;;;;;8.90;8.10;;;;;;;7.63;100.00;98028.84;4964199;28;21205;-62
2022/10/27 04:55:24;;;;;;;8.13;7.40;;;;;;;7.53;100.00;98032.34;4963828;28;20231;-64
2022/10/27 04:57:53;;;;;;;7.37;6.73;;;;;;;7.58;100.00;98031.94;4963480;28;20868;-64
2022/10/27 05:00:21;;;;;;;7.20;6.60;;;;;;;7.57;100.00;98035.50;4962197;28;20205;-63
2022/10/27 05:02:53;;;;;;;7.13;6.63;;;;;;;7.48;100.00;98025.84;4962761;28;20202;-64
2022/10/27 05:05:22;;;;;;;7.30;6.80;;;;;;;7.47;100.00;98035.56;4960103;28;20331;-65
2022/10/27 05:07:52;;;;;;;7.87;7.07;;;;;;;7.46;100.00;98033.91;4961068;28;20241;-63
2022/10/27 05:10:22;;;;;;;7.03;6.43;;;;;;;7.42;100.00;98029.91;4963106;28;20577;-65
2022/10/27 05:12:50;;;;;;;7.07;6.47;;;;;;;7.48;100.00;98037.22;4961934;28;20236;-64
2022/10/27 05:15:18;;;;;;;8.33;7.73;;;;;;;7.43;100.00;98036.00;4962293;28;20216;-63
2022/10/27 05:17:47;;;;;;;6.93;6.43;;;;;;;7.40;100.00;98039.75;4962351;28;20441;-64
2022/10/27 05:20:15;;;;;;;9.33;7.53;;;;;;;7.37;100.00;98038.22;4962569;28;20244;-64
2022/10/27 05:22:44;;;;;;;7.53;7.00;;;;;;;7.42;100.00;98036.97;4962497;28;20201;-61
2022/10/27 05:25:12;;;;;;;8.37;7.57;;;;;;;7.44;100.00;98051.69;4961688;28;20216;-60
2022/10/27 05:27:42;;;;;;;8.23;7.57;;;;;;;7.41;100.00;98046.69;4959635;28;21431;-63
2022/10/27 05:30:11;;;;;;;8.63;8.03;;;;;;;7.43;100.00;98050.03;4962849;28;21129;-64
2022/10/27 05:32:40;;;;;;;7.87;7.27;;;;;;;7.45;100.00;98050.69;4963283;28;20239;-61
2022/10/27 05:35:14;;;;;;;10.50;7.83;;;;;;;7.54;100.00;98049.00;4963244;28;20448;-62
2022/10/27 05:37:44;;;;;;;9.87;8.83;;;;;;;7.49;100.00;98052.06;4960570;28;20911;-64
2022/10/27 05:40:13;;;;;;;9.53;8.10;;;;;;;7.47;100.00;98059.31;4961503;28;20545;-62
2022/10/27 05:42:49;;;;;;;10.43;8.67;;;;;;;7.48;100.00;98062.75;4962054;28;20213;-63
2022/10/27 05:45:18;;;;;;;22.30;8.20;;;;;;;7.48;100.00;98065.38;4958834;28;20283;-65
2022/10/27 05:47:46;;;;;;;10.87;7.30;;;;;;;7.51;100.00;98062.47;4957886;28;20240;-63
2022/10/27 05:50:15;;;;;;;24.33;9.03;;;;;;;7.43;100.00;98065.84;4961469;28;20205;-62
2022/10/27 05:52:46;;;;;;;7.30;6.80;;;;;;;7.48;100.00;98073.31;4960704;28;20563;-64
2022/10/27 05:55:14;;;;;;;12.20;6.90;;;;;;;7.52;100.00;98072.03;4961968;28;20775;-62
2022/10/27 05:57:52;;;;;;;9.37;7.57;;;;;;;7.51;100.00;98068.59;4960247;28;20219;-64
2022/10/27 06:00:21;;;;;;;15.60;8.83;;;;;;;7.51;100.00;98070.38;4960385;28;20431;-58
2022/10/27 06:02:49;;;;;;;10.90;7.43;;;;;;;7.50;100.00;98061.66;4961012;28;20200;-62
2022/10/27 06:05:18;;;;;;;9.17;8.37;;;;;;;7.45;100.00;98066.53;4960660;28;20205;-62
2022/10/27 06:07:46;;;;;;;8.40;7.67;;;;;;;7.42;100.00;98069.44;4958627;28;20239;-61
2022/10/27 06:10:14;;;;;;;8.87;8.07;;;;;;;7.36;100.00;98075.25;4959970;28;20246;-62
2022/10/27 06:12:44;;;;;;;8.50;7.80;;;;;;;7.40;100.00;98074.03;4957193;28;20225;-62
2022/10/27 06:15:12;;;;;;;9.10;8.40;;;;;;;7.48;100.00;98084.69;4959481;28;20466;-63
2022/10/27 06:17:41;;;;;;;9.23;8.37;;;;;;;7.54;100.00;98083.28;4959180;28;20235;-63
2022/10/27 06:20:10;;;;;;;8.50;7.33;;;;;;;7.55;100.00;98079.66;4959313;28;20216;-63
2022/10/27 06:22:38;;;;;;;9.20;6.57;;;;;;;7.52;100.00;98083.44;4959246;28;20208;-64
2022/10/27 06:25:06;;;;;;;9.90;8.90;;;;;;;7.61;100.00;98078.28;4957873;28;20395;-64
2022/10/27 06:27:35;;;;;;;11.07;8.80;;;;;;;7.64;100.00;98084.09;4957840;28;20417;-64
2022/10/27 06:30:05;;;;;;;9.27;8.50;;;;;;;7.67;100.00;98073.25;4959159;28;20694;-61
2022/10/27 06:32:37;;;;;;;9.13;8.33;;;;;;;7.80;100.00;98088.78;4960248;28;21065;-62
2022/10/27 06:35:08;;;;;;;9.17;7.90;;;;;;;7.72;100.00;98093.91;4958774;28;21084;-64
2022/10/27 06:37:38;;;;;;;7.93;7.27;;;;;;;7.66;100.00;98094.50;4960295;28;20232;-61
2022/10/27 06:40:07;;;;;;;7.83;7.13;;;;;;;7.67;100.00;98088.25;4958961;28;20214;-63
2022/10/27 06:42:37;;;;;;;7.70;7.20;;;;;;;7.68;100.00;98095.19;4958805;28;20684;-63
2022/10/27 06:45:27;;;;;;;10.03;7.60;;;;;;;7.57;100.00;98100.63;4959299;28;20224;-62
2022/10/27 06:47:57;;;;;;;6.60;5.90;;;;;;;7.64;100.00;98110.47;4961145;28;20220;-63
2022/10/27 06:50:25;;;;;;;5.83;5.33;;;;;;;7.75;100.00;98108.66;4961248;28;20201;-65
2022/10/27 06:52:53;;;;;;;6.30;5.90;;;;;;;7.82;100.00;98115.84;4959260;28;20550;-64
2022/10/27 06:55:22;;;;;;;8.17;6.27;;;;;;;7.84;100.00;98107.78;4958359;28;21105;-61
2022/10/27 06:57:50;;;;;;;6.43;5.83;;;;;;;7.89;100.00;98112.63;4959623;28;20487;-64
2022/10/27 07:00:19;;;;;;;6.73;6.33;;;;;;;7.85;100.00;98121.81;4958006;28;20720;-63
2022/10/27 07:02:49;;;;;;;6.70;5.97;;;;;;;7.77;100.00;98119.88;4964056;28;20220;-62
2022/10/27 07:05:17;;;;;;;8.67;7.87;;;;;;;7.84;100.00;98120.16;4958691;28;20211;-60
2022/10/27 07:07:47;;;;;;;7.30;6.77;;;;;;;7.77;100.00;98114.59;4963945;28;20334;-61
2022/10/27 07:10:15;;;;;;;10.17;6.40;;;;;;;7.97;100.00;98118.88;4866796;28;20302;-63
2022/10/27 07:12:52;;;;;;;6.13;5.37;;;;;;;8.00;100.00;98124.81;4810038;29;20215;-61
2022/10/27 07:15:21;;;;;;;6.07;5.67;;;;;;;8.21;100.00;98114.03;4696493;29;20411;-61
2022/10/27 07:25:17;;;;;;;9.67;6.03;;;;;;;8.33;100.00;98139.28;5079316;27;21317;-64
2022/10/27 07:27:52;;;;;;;6.40;6.00;;;;;;;8.56;100.00;98140.72;5049852;28;21009;-64
2022/10/27 07:30:21;;;;;;;21.83;6.60;;;;;;;8.66;100.00;98142.34;4997419;28;20331;-60
2022/10/27 07:32:47;;;;;;;18.40;7.90;;;;;;;8.58;100.00;98144.88;4951544;28;20213;-63
2022/10/27 07:35:14;;;;;;;19.43;8.43;;;;;;;8.71;100.00;98146.34;4940516;28;20222;-62
2022/10/27 07:37:43;;;;;;;24.40;8.40;;;;;;;8.71;100.00;98141.88;4891938;28;20341;-61
2022/10/27 07:40:11;;;;;;;28.53;10.20;;;;;;;8.85;100.00;98148.47;4880692;28;20945;-63
2022/10/27 07:45:03;;;;;;;46.23;15.73;;;;;;;8.75;100.00;98151.19;5008428;27;21189;-62
2022/10/27 07:47:31;;;;;;;35.27;12.27;;;;;;;8.86;100.00;98151.94;4998049;28;20235;-62
2022/10/27 07:49:59;;;;;;;11.33;7.87;;;;;;;8.87;100.00;98146.50;4999307;28;20208;-62
2022/10/27 07:52:27;;;;;;;22.03;7.47;;;;;;;9.10;100.00;98148.72;4998825;28;20743;-62
2022/10/27 07:54:56;;;;;;;11.63;8.30;;;;;;;9.12;100.00;98144.97;4998488;28;20945;-61
2022/10/27 07:57:24;;;;;;;11.70;8.53;;;;;;;9.19;100.00;98142.50;4999368;28;20695;-62
2022/10/27 07:59:52;;;;;;;29.13;10.60;;;;;;;9.01;100.00;98150.44;4998752;28;21220;-62
2022/10/27 08:02:22;;;;;;;16.47;8.47;;;;;;;9.02;100.00;98149.47;4998025;28;20345;-64
2022/10/27 08:04:50;;;;;;;36.57;14.10;;;;;;;9.08;100.00;98161.25;4998030;28;20635;-63
2022/10/27 08:07:18;;;;;;;16.63;7.93;;;;;;;9.23;100.00;98154.44;4997564;28;20220;-62
2022/10/27 08:09:46;;;;;;;25.97;10.10;;;;;;;9.38;100.00;98149.47;4996057;28;20204;-66
2022/10/27 08:12:14;;;;;;;18.20;8.83;;;;;;;9.53;100.00;98159.50;4996153;28;20844;-64
2022/10/27 08:14:43;;;;;;;14.83;8.80;;;;;;;9.50;100.00;98155.34;4997928;28;20317;-63
2022/10/27 08:17:12;;;;;;;17.97;8.33;;;;;;;9.65;100.00;98162.72;4996578;28;21036;-61
2022/10/27 08:19:42;;;;;;;17.80;7.80;;;;;;;9.67;100.00;98166.06;4998475;28;20508;-62
2022/10/27 08:22:10;;;;;;;11.13;8.00;;;;;;;9.64;100.00;98166.34;4998867;28;20636;-61
2022/10/27 08:24:41;;;;;;;11.47;8.83;;;;;;;9.68;100.00;98167.72;4996972;28;20227;-63
2022/10/27 08:27:09;;;;;;;13.53;8.80;;;;;;;9.82;100.00;98172.47;4997619;28;20458;-61
2022/10/27 08:29:37;;;;;;;10.10;7.80;;;;;;;9.75;100.00;98171.41;4997715;28;20461;-60
2022/10/27 08:32:05;;;;;;;17.13;11.13;;;;;;;9.79;100.00;98175.41;4999672;28;20230;-62
2022/10/27 08:34:34;;;;;;;31.77;11.70;;;;;;;10.01;100.00;98170.59;5000170;28;20199;-63
2022/10/27 08:37:03;;;;;;;24.97;10.27;;;;;;;10.26;100.00;98168.09;4997878;28;20319;-63
2022/10/27 08:39:31;;;;;;;21.07;10.03;;;;;;;10.23;100.00;98161.31;4998387;28;20643;-63
2022/10/27 08:42:03;;;;;;;16.00;9.73;;;;;;;10.34;100.00;98165.47;4996469;28;20200;-63
2022/10/27 08:44:34;;;;;;;32.70;11.73;;;;;;;10.78;100.00;98164.53;4996436;28;20223;-63
2022/10/27 08:47:04;;;;;;;16.50;10.50;;;;;;;10.84;100.00;98155.91;4997809;28;20524;-62
2022/10/27 08:49:34;;;;;;;14.37;9.50;;;;;;;10.98;100.00;98158.91;4997887;28;20851;-62
2022/10/27 08:52:10;;;;;;;18.67;9.13;;;;;;;11.00;100.00;98163.09;4998352;28;20204;-61
2022/10/27 08:54:39;;;;;;;8.50;7.80;;;;;;;11.09;100.00;98165.75;4993314;28;20493;-64
2022/10/27 08:57:10;;;;;;;13.03;9.37;;;;;;;10.98;100.00;98158.91;4983205;28;20445;-64
2022/10/27 08:59:38;;;;;;;30.93;10.13;;;;;;;11.05;100.00;98159.09;4984223;28;20464;-65
2022/10/27 09:02:24;;;;;;;8.30;7.60;;;;;;;10.94;100.00;98162.88;4985564;28;20771;-63
2022/10/27 09:05:17;;;;;;;8.93;8.10;;;;;;;11.04;100.00;98160.94;4985204;28;20295;-63
2022/10/27 09:07:53;;;;;;;23.20;9.17;;;;;;;11.20;100.00;98157.50;4984847;28;20871;-65
2022/10/27 09:10:37;;;;;;;15.07;8.50;;;;;;;11.30;100.00;98152.00;4983457;28;20211;-63
2022/10/27 09:13:09;;;;;;;8.80;7.93;;;;;;;11.13;100.00;98151.16;4983922;28;20252;-64
2022/10/27 09:15:41;;;;;;;8.77;7.73;;;;;;;11.41;100.00;98142.91;4983082;28;20789;-59
2022/10/27 09:18:14;;;;;;;11.20;7.80;;;;;;;11.28;100.00;98144.22;4983043;28;20835;-63
2022/10/27 09:20:44;;;;;;;11.63;9.27;;;;;;;11.75;100.00;98135.75;4983874;28;20335;-62
2022/10/27 09:23:18;;;;;;;16.57;8.60;;;;;;;11.83;100.00;98143.72;4983330;28;20299;-64
2022/10/27 09:25:48;;;;;;;11.53;9.13;;;;;;;12.33;100.00;98133.81;4982292;28;20451;-63
2022/10/27 09:28:19;;;;;;;17.33;9.87;;;;;;;12.22;100.00;98131.53;4982326;28;20220;-64
2022/10/27 09:30:50;;;;;;;9.50;8.60;;;;;;;12.45;100.00;98120.97;4981849;28;20223;-63
2022/10/27 09:33:21;;;;;;;10.40;9.27;;;;;;;12.40;100.00;98129.47;4982381;28;20454;-62
2022/10/27 09:35:50;;;;;;;10.33;9.43;;;;;;;12.37;100.00;98119.19;4983776;28;20216;-61
2022/10/27 09:38:22;;;;;;;9.87;8.87;;;;;;;12.27;100.00;98123.84;4982857;28;20483;-63
2022/10/27 09:40:52;;;;;;;10.80;9.47;;;;;;;12.70;100.00;98118.19;4983752;28;20207;-61
2022/10/27 09:43:21;;;;;;;11.27;10.17;;;;;;;12.93;100.00;98115.56;4980981;28;20773;-64
2022/10/27 09:45:54;;;;;;;10.83;9.93;;;;;;;12.79;100.00;98109.16;4983123;28;20235;-63
2022/10/27 09:48:24;;;;;;;11.30;10.20;;;;;;;12.82;100.00;98116.78;4982806;28;20231;-63
2022/10/27 09:50:55;;;;;;;10.17;9.17;;;;;;;12.70;100.00;98119.03;4983259;28;20216;-64
2022/10/27 09:53:46;;;;;;;9.60;8.73;;;;;;;12.49;100.00;98114.31;4982102;28;20462;-62
2022/10/27 09:56:17;;;;;;;10.77;9.50;;;;;;;12.65;100.00;98120.56;4982207;28;20214;-63
2022/10/27 09:58:56;;;;;;;9.47;8.67;;;;;;;12.69;100.00;98121.84;4982643;28;20208;-62
2022/10/27 10:01:26;;;;;;;9.83;8.83;;;;;;;12.65;100.00;98126.69;4981182;28;20574;-63
2022/10/27 10:03:56;;;;;;;12.50;9.67;;;;;;;13.03;100.00;98118.81;4982706;28;20298;-63
2022/10/27 10:06:35;;;;;;;9.77;8.97;;;;;;;13.06;100.00;98116.81;4981406;28;20207;-64
2022/10/27 10:09:29;;;;;;;11.47;10.27;;;;;;;12.84;100.00;98111.31;4984251;28;20219;-54
2022/10/27 10:12:19;;;;;;;10.47;9.57;;;;;;;13.49;100.00;98119.00;4985282;28;20211;-57
2022/10/27 10:14:51;;;;;;;10.70;9.73;;;;;;;13.35;100.00;98113.44;4984475;28;20674;-57
2022/10/27 10:17:22;;;;;;;11.73;9.97;;;;;;;13.20;100.00;98120.53;4985154;28;20241;-57
2022/10/27 10:19:52;;;;;;;9.80;9.07;;;;;;;13.55;100.00;98116.47;4985949;28;20892;-58
2022/10/27 10:22:26;;;;;;;10.40;9.50;;;;;;;13.22;100.00;98114.03;4983364;28;20208;-63
2022/10/27 10:24:59;;;;;;;10.57;9.57;;;;;;;13.56;100.00;98107.47;4981936;28;21872;-64
2022/10/27 10:27:29;;;;;;;10.73;9.90;;;;;;;13.60;100.00;98113.25;4982054;28;20224;-64
2022/10/27 10:29:58;;;;;;;10.97;10.03;;;;;;;13.32;100.00;98111.97;4982162;28;20211;-65
2022/10/27 10:32:28;;;;;;;9.57;8.80;;;;;;;13.26;100.00;98115.34;4981104;28;20675;-62
2022/10/27 10:34:59;;;;;;;10.20;9.40;;;;;;;13.63;100.00;98112.06;4981686;28;20215;-63
2022/10/27 10:37:30;;;;;;;9.53;8.90;;;;;;;13.71;100.00;98111.97;4982546;28;20421;-64
2022/10/27 10:40:26;;;;;;;9.30;8.60;;;;;;;13.22;100.00;98106.06;4980961;28;20589;-62
2022/10/27 10:43:03;;;;;;;10.37;9.47;;;;;;;13.14;100.00;98108.78;4981254;28;20216;-63
2022/10/27 10:45:33;;;;;;;9.40;8.77;;;;;;;13.00;100.00;98108.53;4981429;28;20218;-65
2022/10/27 10:48:06;;;;;;;9.77;9.07;;;;;;;13.66;100.00;98096.56;4980873;28;20220;-63
2022/10/27 10:50:44;;;;;;;10.80;9.73;;;;;;;13.64;100.00;98095.94;4984608;28;20208;-64
2022/10/27 10:53:21;;;;;;;10.33;9.53;;;;;;;13.96;100.00;98098.44;4983851;28;21342;-64
2022/10/27 10:55:53;;;;;;;10.03;9.23;;;;;;;13.83;100.00;98093.72;4984492;28;21083;-66
2022/10/27 10:58:23;;;;;;;10.13;9.23;;;;;;;14.09;100.00;98090.59;4984403;28;20251;-63
2022/10/27 11:00:56;;;;;;;9.50;8.73;;;;;;;13.62;100.00;98100.56;4987440;28;20200;-63
2022/10/27 11:03:26;;;;;;;10.60;9.70;;;;;;;13.31;100.00;98107.63;4983054;28;20208;-63
2022/10/27 11:05:57;;;;;;;10.70;9.83;;;;;;;13.34;100.00;98106.47;4983823;28;20579;-62
2022/10/27 11:08:29;;;;;;;10.60;9.73;;;;;;;13.66;100.00;98098.38;4982728;28;20239;-65
2022/10/27 11:11:00;;;;;;;9.70;9.10;;;;;;;13.63;100.00;98093.44;4983764;28;20379;-63
2022/10/27 11:13:36;;;;;;;9.67;8.87;;;;;;;13.62;100.00;98102.44;4982597;28;20211;-63
2022/10/27 11:16:11;;;;;;;9.90;8.97;;;;;;;13.49;100.00;98097.72;4983452;28;20866;-64
2022/10/27 11:18:45;;;;;;;11.93;10.70;;;;;;;13.71;100.00;98093.34;4983143;28;21097;-64
2022/10/27 11:21:22;;;;;;;9.87;9.07;;;;;;;13.86;100.00;98091.53;4982364;28;20500;-61
2022/10/27 11:23:53;;;;;;;16.10;14.70;;;;;;;13.91;100.00;98085.66;4982586;28;20200;-64
2022/10/27 11:26:24;;;;;;;11.57;10.63;;;;;;;13.95;100.00;98086.13;4981760;28;20231;-64
2022/10/27 11:28:59;;;;;;;10.40;9.60;;;;;;;14.05;100.00;98081.34;4982053;28;20861;-63
2022/10/27 11:31:33;;;;;;;10.70;9.80;;;;;;;14.13;100.00;98072.44;4982846;28;20870;-64
2022/10/27 11:34:07;;;;;;;11.10;10.13;;;;;;;14.24;100.00;98077.28;4982698;28;20208;-64
2022/10/27 11:36:39;;;;;;;10.47;9.47;;;;;;;14.41;100.00;98075.22;4981169;28;20646;-63
2022/10/27 11:39:10;;;;;;;10.60;9.77;;;;;;;14.46;100.00;98086.16;4982034;28;20200;-63
2022/10/27 11:41:44;;;;;;;10.97;9.93;;;;;;;14.59;100.00;98084.69;4982173;28;20842;-64
2022/10/27 11:44:20;;;;;;;10.80;9.80;;;;;;;14.62;100.00;98081.63;4980861;28;21128;-64
2022/10/27 11:46:53;;;;;;;10.47;8.87;;;;;;;14.76;100.00;98075.44;4981383;28;20628;-64
2022/10/27 11:49:27;;;;;;;10.03;9.13;;;;;;;14.82;100.00;98065.88;4980907;28;20352;-64
2022/10/27 11:51:58;;;;;;;9.47;8.77;;;;;;;14.94;100.00;98057.34;4982438;28;20441;-64
2022/10/27 11:54:26;;;;;;;9.07;7.80;;;;;;;15.09;100.00;98057.28;4981671;28;20491;-63